Time,TemperatureF,DewpointF,PressureIn,WindDirection,WindDirectionDegrees,WindSpeedMPH,WindSpeedGustMPH,Humidity,HourlyPrecipIn,Conditions,Clouds,dailyrainin,SoftwareType,DateUTC
2013-01-03 00:10:00,9.8,-1.3,30.11,NW,324,1.0,1.0,60,0.00,,,0.00,Wunderground v.1.15,2013-01-03 05:10:00,
2013-01-03 00:20:00,9.4,-1.7,30.11,West,278,2.0,2.0,60,0.00,,,0.00,Wunderground v.1.15,2013-01-03 05:20:00,
2013-01-03 00:30:00,9.2,-1.5,30.12,NNE,24,1.0,1.0,61,0.00,,,0.00,Wunderground v.1.15,2013-01-03 05:30:00,
2013-01-03 00:40:00,8.9,-2.2,30.12,WNW,284,2.0,2.0,60,0.00,,,0.00,Wunderground v.1.15,2013-01-03 05:40:00,
2013-01-03 00:50:00,8.6,-2.5,30.12,West,276,2.0,2.0,60,0.00,,,0.00,Wunderground v.1.15,2013-01-03 05:50:00,
2013-01-03 01:00:00,8.4,-3.0,30.13,NNW,338,1.0,1.0,59,0.00,,,0.00,Wunderground v.1.15,2013-01-03 06:00:00,
2013-01-03 01:10:00,8.4,-3.0,30.13,NW,304,1.0,1.0,59,0.00,,,0.00,Wunderground v.1.15,2013-01-03 06:10:00,
2013-01-03 01:20:00,8.2,-2.5,30.13,NW,315,0.0,0.0,61,0.00,,,0.00,Wunderground v.1.15,2013-01-03 06:20:00,
2013-01-03 01:30:00,8.0,-2.7,30.13,NW,308,1.0,1.0,61,0.00,,,0.00,Wunderground v.1.15,2013-01-03 06:30:00,
2013-01-03 01:40:00,7.7,-3.0,30.13,West,281,1.0,1.0,61,0.00,,,0.00,Wunderground v.1.15,2013-01-03 06:40:00,
2013-01-03 01:50:00,7.3,-3.0,30.14,NW,304,1.0,2.0,62,0.00,,,0.00,Wunderground v.1.15,2013-01-03 06:50:00,
2013-01-03 02:00:00,7.4,-2.9,30.14,WSW,251,1.0,2.0,62,0.00,,,0.00,Wunderground v.1.15,2013-01-03 07:00:00,
2013-01-03 02:10:00,7.4,-3.6,30.14,WNW,283,1.0,2.0,60,0.00,,,0.00,Wunderground v.1.15,2013-01-03 07:10:00,
2013-01-03 02:20:00,7.4,-3.6,30.14,WNW,285,1.0,2.0,60,0.00,,,0.00,Wunderground v.1.15,2013-01-03 07:20:00,
2013-01-03 02:30:00,7.2,-3.8,30.14,West,270,0.0,0.0,60,0.00,,,0.00,Wunderground v.1.15,2013-01-03 07:30:00,
2013-01-03 02:40:00,7.0,-4.0,30.14,WNW,294,1.0,1.0,60,0.00,,,0.00,Wunderground v.1.15,2013-01-03 07:40:00,
2013-01-03 02:50:00,6.8,-4.5,30.13,West,269,2.0,5.0,59,0.00,,,0.00,Wunderground v.1.15,2013-01-03 07:50:00,
2013-01-03 03:00:00,6.7,-4.3,30.13,WSW,246,2.0,2.0,60,0.00,,,0.00,Wunderground v.1.15,2013-01-03 08:00:00,
2013-01-03 03:10:00,6.6,-4.0,30.13,West,267,1.0,4.0,61,0.00,,,0.00,Wunderground v.1.15,2013-01-03 08:10:00,
2013-01-03 03:20:00,6.4,-3.9,30.13,West,269,1.0,3.0,62,0.00,,,0.00,Wunderground v.1.15,2013-01-03 08:20:00,
2013-01-03 03:30:00,6.2,-3.7,30.12,WNW,294,1.0,1.0,63,0.00,,,0.00,Wunderground v.1.15,2013-01-03 08:30:00,
2013-01-03 03:40:00,6.2,-3.7,30.12,WNW,282,1.0,2.0,63,0.00,,,0.00,Wunderground v.1.15,2013-01-03 08:40:00,
2013-01-03 03:50:00,5.8,-4.4,30.12,WNW,288,2.0,2.0,62,0.00,,,0.00,Wunderground v.1.15,2013-01-03 08:50:00,
2013-01-03 04:00:00,5.6,-4.6,30.12,WNW,286,1.0,1.0,62,0.00,,,0.00,Wunderground v.1.15,2013-01-03 09:00:00,
2013-01-03 04:10:00,5.6,-4.6,30.12,WNW,286,0.0,0.0,62,0.00,,,0.00,Wunderground v.1.15,2013-01-03 09:10:00,
2013-01-03 04:20:00,5.5,-4.4,30.12,WNW,286,0.0,0.0,63,0.00,,,0.00,Wunderground v.1.15,2013-01-03 09:20:00,
2013-01-03 04:30:00,5.4,-4.8,30.12,WNW,286,0.0,0.0,62,0.00,,,0.00,Wunderground v.1.15,2013-01-03 09:30:00,
2013-01-03 04:40:00,5.1,-4.8,30.12,WNW,293,0.0,0.0,63,0.00,,,0.00,Wunderground v.1.15,2013-01-03 09:40:00,
2013-01-03 04:50:00,4.8,-4.4,30.12,WNW,293,0.0,0.0,65,0.00,,,0.00,Wunderground v.1.15,2013-01-03 09:50:00,
2013-01-03 05:00:00,4.6,-4.9,30.12,WNW,293,0.0,0.0,64,0.00,,,0.00,Wunderground v.1.15,2013-01-03 10:00:00,
2013-01-03 05:10:00,4.4,-4.8,30.12,WNW,293,0.0,0.0,65,0.00,,,0.00,Wunderground v.1.15,2013-01-03 10:10:00,
2013-01-03 05:20:00,4.4,-4.8,30.11,WNW,293,0.0,0.0,65,0.00,,,0.00,Wunderground v.1.15,2013-01-03 10:20:00,
2013-01-03 05:30:00,4.3,-4.6,30.12,West,272,0.0,0.0,66,0.00,,,0.00,Wunderground v.1.15,2013-01-03 10:30:00,
2013-01-03 05:40:00,4.2,-4.3,30.12,West,272,0.0,0.0,67,0.00,,,0.00,Wunderground v.1.15,2013-01-03 10:40:00,
2013-01-03 05:50:00,3.8,-4.7,30.12,West,272,0.0,0.0,67,0.00,,,0.00,Wunderground v.1.15,2013-01-03 10:50:00,
2013-01-03 06:00:00,3.3,-4.9,30.12,West,272,0.0,1.0,68,0.00,,,0.00,Wunderground v.1.15,2013-01-03 11:00:00,
2013-01-03 06:10:00,3.0,-4.6,30.12,West,272,0.0,0.0,70,0.00,,,0.00,Wunderground v.1.15,2013-01-03 11:10:00,
2013-01-03 06:20:00,3.1,-4.8,30.12,West,272,0.0,0.0,69,0.00,,,0.00,Wunderground v.1.15,2013-01-03 11:20:00,
2013-01-03 06:30:00,3.0,-4.9,30.11,West,272,0.0,0.0,69,0.00,,,0.00,Wunderground v.1.15,2013-01-03 11:30:00,
2013-01-03 06:40:00,3.0,-4.3,30.12,West,272,0.0,0.0,71,0.00,,,0.00,Wunderground v.1.15,2013-01-03 11:40:00,
2013-01-03 06:50:00,3.0,-4.3,30.12,West,272,0.0,0.0,71,0.00,,,0.00,Wunderground v.1.15,2013-01-03 11:50:00,
2013-01-03 07:00:00,3.0,-4.3,30.12,West,272,0.0,0.0,71,0.00,,,0.00,Wunderground v.1.15,2013-01-03 12:00:00,
2013-01-03 07:10:00,3.1,-4.5,30.12,West,272,0.0,0.0,70,0.00,,,0.00,Wunderground v.1.15,2013-01-03 12:10:00,
2013-01-03 07:20:00,2.6,-4.4,30.12,West,272,0.0,0.0,72,0.00,,,0.00,Wunderground v.1.15,2013-01-03 12:20:00,
2013-01-03 07:30:00,2.1,-4.6,30.13,West,272,0.0,0.0,73,0.00,,,0.00,Wunderground v.1.15,2013-01-03 12:30:00,
2013-01-03 07:40:00,2.0,-4.7,30.13,West,272,0.0,0.0,73,0.00,,,0.00,Wunderground v.1.15,2013-01-03 12:40:00,
2013-01-03 07:50:00,2.3,-4.1,30.13,West,272,0.0,0.0,74,0.00,,,0.00,Wunderground v.1.15,2013-01-03 12:50:00,
2013-01-03 08:00:00,3.4,-3.3,30.13,West,271,0.0,0.0,73,0.00,,,0.00,Wunderground v.1.15,2013-01-03 13:00:00,
2013-01-03 08:10:00,4.5,-3.4,30.13,West,271,0.0,0.0,69,0.00,,,0.00,Wunderground v.1.15,2013-01-03 13:10:00,
2013-01-03 08:20:00,5.0,-3.6,30.13,West,278,1.0,2.0,67,0.00,,,0.00,Wunderground v.1.15,2013-01-03 13:20:00,
2013-01-03 08:30:00,5.6,-3.6,30.13,WNW,284,1.0,1.0,65,0.00,,,0.00,Wunderground v.1.15,2013-01-03 13:30:00,
2013-01-03 08:40:00,6.4,-3.5,30.13,West,268,1.0,1.0,63,0.00,,,0.00,Wunderground v.1.15,2013-01-03 13:40:00,
2013-01-03 08:50:00,7.3,-3.3,30.12,West,263,2.0,2.0,61,0.00,,,0.00,Wunderground v.1.15,2013-01-03 13:50:00,
2013-01-03 09:00:00,8.2,-3.6,30.12,West,261,2.0,4.0,58,0.00,,,0.00,Wunderground v.1.15,2013-01-03 14:00:00,
2013-01-03 09:10:00,9.0,-3.2,30.12,West,272,3.0,3.0,57,0.00,,,0.00,Wunderground v.1.15,2013-01-03 14:10:00,
2013-01-03 09:20:00,9.6,-3.3,30.12,WNW,298,3.0,3.0,55,0.00,,,0.00,Wunderground v.1.15,2013-01-03 14:20:00,
2013-01-03 09:30:00,10.3,-3.1,30.12,SW,231,3.0,3.0,54,0.00,,,0.00,Wunderground v.1.15,2013-01-03 14:30:00,
2013-01-03 09:40:00,11.0,-2.8,30.13,West,267,3.0,3.0,53,0.00,,,0.00,Wunderground v.1.15,2013-01-03 14:40:00,
2013-01-03 09:50:00,12.0,-2.7,30.13,West,263,3.0,3.0,51,0.00,,,0.00,Wunderground v.1.15,2013-01-03 14:50:00,
2013-01-03 10:00:00,13.0,-2.2,30.12,NW,305,2.0,2.0,50,0.00,,,0.00,Wunderground v.1.15,2013-01-03 15:00:00,
2013-01-03 10:10:00,14.3,-1.8,30.12,West,273,1.0,2.0,48,0.00,,,0.00,Wunderground v.1.15,2013-01-03 15:10:00,
2013-01-03 10:20:00,14.8,-2.3,30.12,WNW,294,2.0,2.0,46,0.00,,,0.00,Wunderground v.1.15,2013-01-03 15:20:00,
2013-01-03 10:30:00,15.5,-2.1,30.11,NW,321,1.0,1.0,45,0.00,,,0.00,Wunderground v.1.15,2013-01-03 15:30:00,
2013-01-03 10:40:00,16.1,-2.5,30.11,NE,45,2.0,2.0,43,0.00,,,0.00,Wunderground v.1.15,2013-01-03 15:40:00,
2013-01-03 10:50:00,16.4,-2.2,30.11,NNE,30,2.0,2.0,43,0.00,,,0.00,Wunderground v.1.15,2013-01-03 15:50:00,
2013-01-03 11:00:00,17.1,-2.1,30.10,West,268,2.0,2.0,42,0.00,,,0.00,Wunderground v.1.15,2013-01-03 16:00:00,
2013-01-03 11:10:00,17.2,-2.0,30.10,West,277,3.0,3.0,42,0.00,,,0.00,Wunderground v.1.15,2013-01-03 16:10:00,
2013-01-03 11:20:00,17.7,-2.1,30.09,WNW,294,3.0,3.0,41,0.00,,,0.00,Wunderground v.1.15,2013-01-03 16:20:00,
2013-01-03 11:30:00,18.4,-1.4,30.09,WSW,247,3.0,3.0,41,0.00,,,0.00,Wunderground v.1.15,2013-01-03 16:30:00,
2013-01-03 11:40:00,18.6,-1.8,30.09,West,271,4.0,5.0,40,0.00,,,0.00,Wunderground v.1.15,2013-01-03 16:40:00,
2013-01-03 11:50:00,19.3,-1.1,30.09,WNW,286,3.0,3.0,40,0.00,,,0.00,Wunderground v.1.15,2013-01-03 16:50:00,
2013-01-03 12:00:00,19.7,-1.3,30.08,WSW,248,3.0,7.0,39,0.00,,,0.00,Wunderground v.1.15,2013-01-03 17:00:00,
2013-01-03 12:10:00,20.0,-1.6,30.07,West,279,4.0,4.0,38,0.00,,,0.00,Wunderground v.1.15,2013-01-03 17:10:00,
2013-01-03 12:20:00,20.7,-0.9,30.07,WNW,284,3.0,6.0,38,0.00,,,0.00,Wunderground v.1.15,2013-01-03 17:20:00,
2013-01-03 12:30:00,21.0,-0.7,30.06,WNW,288,3.0,3.0,38,0.00,,,0.00,Wunderground v.1.15,2013-01-03 17:30:00,
2013-01-03 12:40:00,21.7,1.1,30.06,SW,236,3.0,3.0,40,0.00,,,0.00,Wunderground v.1.15,2013-01-03 17:40:00,
2013-01-03 12:50:00,22.1,-0.3,30.05,WNW,282,3.0,3.0,37,0.00,,,0.00,Wunderground v.1.15,2013-01-03 17:50:00,
2013-01-03 13:00:00,23.1,0.1,30.04,NW,321,1.0,2.0,36,0.00,,,0.00,Wunderground v.1.15,2013-01-03 18:00:00,
2013-01-03 13:10:00,23.2,-0.5,30.04,North,5,3.0,3.0,35,0.00,,,0.00,Wunderground v.1.15,2013-01-03 18:10:00,
2013-01-03 13:20:00,23.1,-0.5,30.03,West,265,3.0,5.0,35,0.00,,,0.00,Wunderground v.1.15,2013-01-03 18:20:00,
2013-01-03 13:30:00,23.8,0.1,30.03,West,267,2.0,3.0,35,0.00,,,0.00,Wunderground v.1.15,2013-01-03 18:30:00,
2013-01-03 13:40:00,24.8,0.4,30.03,NNW,335,2.0,2.0,34,0.00,,,0.00,Wunderground v.1.15,2013-01-03 18:40:00,
2013-01-03 13:50:00,25.4,-0.4,30.03,NW,304,2.0,2.0,32,0.00,,,0.00,Wunderground v.1.15,2013-01-03 18:50:00,
2013-01-03 14:00:00,26.0,1.4,30.03,NE,36,2.0,3.0,34,0.00,,,0.00,Wunderground v.1.15,2013-01-03 19:00:00,
2013-01-03 14:10:00,26.2,-4.9,30.03,North,5,3.0,4.0,25,0.00,,,0.00,Wunderground v.1.15,2013-01-03 19:10:00,
2013-01-03 15:00:00,24.2,-4.3,30.03,NW,313,2.0,2.0,28,0.00,,,0.00,Wunderground v.1.15,2013-01-03 20:00:00,
2013-01-03 15:10:00,23.9,-3.8,30.02,North,355,1.0,3.0,29,0.00,,,0.00,Wunderground v.1.15,2013-01-03 20:10:00,
2013-01-03 15:20:00,23.7,-1.3,30.02,NE,36,1.0,1.0,33,0.00,,,0.00,Wunderground v.1.15,2013-01-03 20:20:00,
2013-01-03 15:30:00,23.5,-2.8,30.02,NW,314,0.0,1.0,31,0.00,,,0.00,Wunderground v.1.15,2013-01-03 20:30:00,
2013-01-03 15:40:00,23.3,-0.4,30.02,NW,323,1.0,1.0,35,0.00,,,0.00,Wunderground v.1.15,2013-01-03 20:40:00,
2013-01-03 15:50:00,23.4,-0.9,30.03,West,271,2.0,3.0,34,0.00,,,0.00,Wunderground v.1.15,2013-01-03 20:50:00,
2013-01-03 16:00:00,23.4,-2.2,30.03,West,270,2.0,2.0,32,0.00,,,0.00,Wunderground v.1.15,2013-01-03 21:00:00,
2013-01-03 16:10:00,23.0,-2.5,30.03,WNW,290,1.0,2.0,32,0.00,,,0.00,Wunderground v.1.15,2013-01-03 21:10:00,
2013-01-03 16:20:00,22.5,0.1,30.03,West,266,1.0,1.0,37,0.00,,,0.00,Wunderground v.1.15,2013-01-03 21:20:00,
2013-01-03 16:30:00,21.9,0.1,30.02,WNW,286,0.0,0.0,38,0.00,,,0.00,Wunderground v.1.15,2013-01-03 21:30:00,
2013-01-03 16:40:00,21.3,1.2,30.02,WNW,286,0.0,0.0,41,0.00,,,0.00,Wunderground v.1.15,2013-01-03 21:40:00,
2013-01-03 16:50:00,20.9,1.9,30.02,WNW,286,0.0,0.0,43,0.00,,,0.00,Wunderground v.1.15,2013-01-03 21:50:00,
2013-01-03 17:00:00,20.5,2.0,30.03,WNW,286,0.0,0.0,44,0.00,,,0.00,Wunderground v.1.15,2013-01-03 22:00:00,
2013-01-03 17:10:00,19.8,2.8,30.03,WNW,286,0.0,0.0,47,0.00,,,0.00,Wunderground v.1.15,2013-01-03 22:10:00,
2013-01-03 17:20:00,19.1,3.9,30.03,WNW,286,0.0,0.0,51,0.00,,,0.00,Wunderground v.1.15,2013-01-03 22:20:00,
2013-01-03 17:30:00,18.4,4.5,30.03,WNW,286,0.0,0.0,54,0.00,,,0.00,Wunderground v.1.15,2013-01-03 22:30:00,
2013-01-03 17:40:00,17.9,3.2,30.03,WNW,286,0.0,0.0,52,0.00,,,0.00,Wunderground v.1.15,2013-01-03 22:40:00,
2013-01-03 17:50:00,17.6,3.8,30.03,WNW,286,0.0,0.0,54,0.00,,,0.00,Wunderground v.1.15,2013-01-03 22:50:00,
2013-01-03 18:00:00,17.5,4.1,30.03,WNW,286,0.0,0.0,55,0.00,,,0.00,Wunderground v.1.15,2013-01-03 23:00:00,
2013-01-03 18:10:00,16.9,4.7,30.03,WNW,286,0.0,0.0,58,0.00,,,0.00,Wunderground v.1.15,2013-01-03 23:10:00,
2013-01-03 18:20:00,16.3,3.7,30.04,WNW,286,0.0,0.0,57,0.00,,,0.00,Wunderground v.1.15,2013-01-03 23:20:00,
2013-01-03 18:30:00,16.1,4.6,30.04,WNW,286,0.0,0.0,60,0.00,,,0.00,Wunderground v.1.15,2013-01-03 23:30:00,
2013-01-03 18:40:00,15.6,5.2,30.04,WNW,286,0.0,0.0,63,0.00,,,0.00,Wunderground v.1.15,2013-01-03 23:40:00,
2013-01-03 18:50:00,15.2,4.5,30.04,WNW,286,0.0,0.0,62,0.00,,,0.00,Wunderground v.1.15,2013-01-03 23:50:00,
2013-01-03 19:00:00,14.8,5.2,30.04,WNW,286,0.0,0.0,65,0.00,,,0.00,Wunderground v.1.15,2013-01-04 00:00:00,
2013-01-03 19:10:00,14.8,5.2,30.04,WNW,286,0.0,0.0,65,0.00,,,0.00,Wunderground v.1.15,2013-01-04 00:10:00,
2013-01-03 19:20:00,14.9,5.2,30.04,WNW,286,0.0,0.0,65,0.00,,,0.00,Wunderground v.1.15,2013-01-04 00:20:00,
2013-01-03 19:30:00,15.0,5.7,30.04,WNW,286,0.0,0.0,66,0.00,,,0.00,Wunderground v.1.15,2013-01-04 00:30:00,
2013-01-03 19:40:00,15.3,5.6,30.04,WNW,286,0.0,0.0,65,0.00,,,0.00,Wunderground v.1.15,2013-01-04 00:40:00,
2013-01-03 19:50:00,15.6,6.6,30.04,WNW,286,0.0,0.0,67,0.00,,,0.00,Wunderground v.1.15,2013-01-04 00:50:00,
2013-01-03 20:00:00,15.8,7.1,30.04,WNW,286,0.0,0.0,68,0.00,,,0.00,Wunderground v.1.15,2013-01-04 01:00:00,
2013-01-03 20:10:00,16.0,7.3,30.03,WNW,286,0.0,0.0,68,0.00,,,0.00,Wunderground v.1.15,2013-01-04 01:10:00,
2013-01-03 20:20:00,15.9,7.2,30.04,WNW,286,0.0,0.0,68,0.00,,,0.00,Wunderground v.1.15,2013-01-04 01:20:00,
2013-01-03 20:30:00,15.5,5.8,30.04,WNW,286,0.0,0.0,65,0.00,,,0.00,Wunderground v.1.15,2013-01-04 01:30:00,
2013-01-03 20:40:00,15.0,5.0,30.05,WNW,286,0.0,0.0,64,0.00,,,0.00,Wunderground v.1.15,2013-01-04 01:40:00,
2013-01-03 20:50:00,14.7,5.1,30.05,WNW,286,0.0,0.0,65,0.00,,,0.00,Wunderground v.1.15,2013-01-04 01:50:00,
2013-01-03 21:00:00,14.4,5.1,30.04,WNW,286,0.0,0.0,66,0.00,,,0.00,Wunderground v.1.15,2013-01-04 02:00:00,
2013-01-03 21:10:00,14.3,5.7,30.04,WNW,286,0.0,0.0,68,0.00,,,0.00,Wunderground v.1.15,2013-01-04 02:10:00,
2013-01-03 21:20:00,14.1,6.4,30.04,WNW,286,0.0,0.0,71,0.00,,,0.00,Wunderground v.1.15,2013-01-04 02:20:00,
2013-01-03 21:30:00,14.0,6.6,30.04,WNW,286,0.0,0.0,72,0.00,,,0.00,Wunderground v.1.15,2013-01-04 02:30:00,
2013-01-03 21:40:00,13.8,5.8,30.04,WNW,286,0.0,0.0,70,0.00,,,0.00,Wunderground v.1.15,2013-01-04 02:40:00,
2013-01-03 21:50:00,13.8,6.4,30.04,WNW,286,0.0,0.0,72,0.00,,,0.00,Wunderground v.1.15,2013-01-04 02:50:00,
2013-01-03 22:00:00,13.9,6.8,30.03,WNW,286,0.0,0.0,73,0.00,,,0.00,Wunderground v.1.15,2013-01-04 03:00:00,
2013-01-03 22:10:00,14.1,7.3,30.03,WNW,286,0.0,0.0,74,0.00,,,0.00,Wunderground v.1.15,2013-01-04 03:10:00,
2013-01-03 22:20:00,14.3,7.8,30.03,WNW,286,0.0,0.0,75,0.00,,,0.00,Wunderground v.1.15,2013-01-04 03:20:00,
2013-01-03 22:30:00,14.4,7.9,30.03,WNW,286,0.0,1.0,75,0.00,,,0.00,Wunderground v.1.15,2013-01-04 03:30:00,
2013-01-03 22:40:00,14.1,7.6,30.02,WNW,286,0.0,0.0,75,0.00,,,0.00,Wunderground v.1.15,2013-01-04 03:40:00,
2013-01-03 22:50:00,14.1,8.2,30.02,WNW,286,0.0,0.0,77,0.00,,,0.00,Wunderground v.1.15,2013-01-04 03:50:00,
2013-01-03 23:00:00,14.3,8.1,30.02,WNW,286,0.0,0.0,76,0.00,,,0.00,Wunderground v.1.15,2013-01-04 04:00:00,
2013-01-03 23:10:00,14.5,8.3,30.01,WNW,286,0.0,0.0,76,0.00,,,0.00,Wunderground v.1.15,2013-01-04 04:10:00,
2013-01-03 23:20:00,14.6,8.4,30.01,WNW,286,0.0,0.0,76,0.00,,,0.00,Wunderground v.1.15,2013-01-04 04:20:00,
2013-01-03 23:30:00,14.4,8.2,30.01,WNW,286,0.0,0.0,76,0.00,,,0.00,Wunderground v.1.15,2013-01-04 04:30:00,
2013-01-03 23:40:00,14.3,8.1,30.00,WNW,286,0.0,0.0,76,0.00,,,0.00,Wunderground v.1.15,2013-01-04 04:40:00,
2013-01-03 23:50:00,14.1,8.5,30.00,WNW,286,0.0,0.0,78,0.00,,,0.00,Wunderground v.1.15,2013-01-04 04:50:00,